^^
Datos históricos de la estación: Murcia-Puente Tocinos
 
Diario Informe para Marzo 01, 2024 Unidades:  Métrico    Ingés   Ambas
Diario Semanal Mensual Anual
  Actual: Máxima: Mínima: Promedio:
Temperatura: 12.2 °C 17.4 °C 11.2 °C 13.1 °C
Punto de rocio: -3.7 °C 4.5 °C -4.2 °C -2.5 °C
Humedad: 33% 42.3% 30% 34%
Velocidad viento: 25.7km/h 48.7km/h 8.4km/h 27km/h
Racha viento: 13km/h 30.9km/h - -
VientoOeste - - Oeste
Presión: 1019.0 hPa 1019.3 hPa 1013.6 hPa -
Precipitación: 0.0 mm      
 
 
Tabla de datos para Marzo 01, 2024
Hora Temperatura Punto de rocio Presión Viento Velocidad viento Racha viento Humedad Intensidad lluvia(por hora) Nubes
00:04 17.4 °C 4.5 °C 1013.6 hPa ONO 35.4 km/h 20.9 km/h 42.3% 0.0 mm
00:09 17.3 °C 4 °C 1013.9 hPa ONO 42.6 km/h 23.7 km/h 41.4% 0.0 mm
00:14 17.1 °C 3.6 °C 1013.9 hPa ONO 35.8 km/h 23.7 km/h 40.5% 0.0 mm
00:19 16.9 °C 2.4 °C 1013.9 hPa ONO 39.5 km/h 23.7 km/h 37.7% 0.0 mm
00:24 16.7 °C 0.3 °C 1014.3 hPa ONO 46.5 km/h 23.3 km/h 32.9% 0.0 mm
00:29 16.6 °C -1 °C 1014.3 hPa ONO 43.1 km/h 28.2 km/h 30.3% 0.0 mm
00:34 16.3 °C -1.3 °C 1014.3 hPa ONO 38.4 km/h 28.2 km/h 30% 0.0 mm
00:39 16.1 °C -1.5 °C 1014.4 hPa ONO 33.2 km/h 28.2 km/h 30% 0.0 mm
00:44 15.9 °C -1.7 °C 1014.4 hPa ONO 41.4 km/h 23.7 km/h 30% 0.0 mm
00:49 15.8 °C -1.6 °C 1014.4 hPa ONO 48.7 km/h 26.2 km/h 30.2% 0.0 mm
00:54 15.7 °C -1.4 °C 1014.6 hPa ONO 44.2 km/h 26.2 km/h 31% 0.0 mm
00:59 15.5 °C -1.6 °C 1014.6 hPa ONO 48.1 km/h 30.9 km/h 31% 0.0 mm
01:04 15.3 °C -1.7 °C 1014.6 hPa ONO 43.9 km/h 30.9 km/h 31% 0.0 mm
01:09 15.2 °C -1.8 °C 1015.0 hPa ONO 46.4 km/h 30.9 km/h 31% 0.0 mm
01:14 15.2 °C -1.9 °C 1015.0 hPa ONO 43.1 km/h 27.4 km/h 31% 0.0 mm
01:19 15.1 °C -1.9 °C 1015.0 hPa ONO 42.7 km/h 28.2 km/h 31% 0.0 mm
01:24 15 °C -1.8 °C 1015.4 hPa ONO 40.4 km/h 28.2 km/h 31.5% 0.0 mm
01:29 14.9 °C -1.7 °C 1015.4 hPa ONO 28.8 km/h 28.2 km/h 31.9% 0.0 mm
01:34 14.8 °C -1.8 °C 1015.4 hPa ONO 34.1 km/h 24.5 km/h 32% 0.0 mm
01:39 14.7 °C -1.8 °C 1015.7 hPa ONO 35.8 km/h 24.5 km/h 32% 0.0 mm
01:44 14.7 °C -1.9 °C 1015.7 hPa ONO 30.9 km/h 19.8 km/h 32% 0.0 mm
01:49 14.6 °C -1.7 °C 1015.7 hPa ONO 39.3 km/h 20.1 km/h 32.7% 0.0 mm
01:54 14.4 °C -1.9 °C 1015.7 hPa ONO 34.8 km/h 20.1 km/h 32.5% 0.0 mm
01:59 14.4 °C -2.1 °C 1015.7 hPa ONO 37.3 km/h 22.5 km/h 32% 0.0 mm
02:04 14.4 °C -2.1 °C 1015.7 hPa Oeste 35.5 km/h 22.5 km/h 32% 0.0 mm
02:09 14.3 °C -2.2 °C 1015.9 hPa Oeste 28.6 km/h 22.5 km/h 32% 0.0 mm
02:14 14.2 °C -2.3 °C 1015.9 hPa ONO 25.2 km/h 22 km/h 32% 0.0 mm
02:19 14.2 °C -2.3 °C 1015.9 hPa Oeste 19.5 km/h 22 km/h 32% 0.0 mm
02:24 14.1 °C -2.4 °C 1015.9 hPa Oeste 24.1 km/h 16.4 km/h 32% 0.0 mm
02:29 14.1 °C -2.4 °C 1015.8 hPa ONO 22.4 km/h 16.4 km/h 32% 0.0 mm
02:34 13.9 °C -2.5 °C 1015.8 hPa ONO 28.2 km/h 13 km/h 32% 0.0 mm
02:39 13.9 °C -2.1 °C 1015.9 hPa ONO 26.4 km/h 16.4 km/h 33% 0.0 mm
02:44 13.8 °C -2.2 °C 1015.9 hPa Oeste 24.1 km/h 16.4 km/h 33% 0.0 mm
02:49 13.8 °C -2.2 °C 1015.9 hPa Oeste 32.4 km/h 16.4 km/h 33% 0.0 mm
02:54 13.8 °C -2.2 °C 1016.0 hPa ONO 20.8 km/h 15.6 km/h 33% 0.0 mm
02:59 13.7 °C -2.2 °C 1016.0 hPa Oeste 16.8 km/h 15.6 km/h 33.3% 0.0 mm
03:04 13.6 °C -2 °C 1016.0 hPa Oeste 21.6 km/h 14 km/h 34% 0.0 mm
03:09 13.5 °C -2 °C 1016.0 hPa Oeste 24.6 km/h 14 km/h 34% 0.0 mm
03:14 13.5 °C -2.1 °C 1015.8 hPa Oeste 28.6 km/h 13.7 km/h 34% 0.0 mm
03:19 13.4 °C -2.1 °C 1015.8 hPa ONO 27.5 km/h 19 km/h 34% 0.0 mm
03:24 13.3 °C -2.2 °C 1015.8 hPa ONO 21.1 km/h 19 km/h 34% 0.0 mm
03:29 13.3 °C -2.1 °C 1015.7 hPa ONO 24.7 km/h 19 km/h 34.4% 0.0 mm
03:34 13.2 °C -1.9 °C 1015.7 hPa ONO 32.4 km/h 14 km/h 35% 0.0 mm
03:39 13.2 °C -1.9 °C 1015.7 hPa ONO 25.2 km/h 18.3 km/h 35% 0.0 mm
03:44 13.1 °C -2.1 °C 1015.7 hPa ONO 27.2 km/h 18.3 km/h 35% 0.0 mm
03:49 13 °C -1.9 °C 1015.7 hPa ONO 32.6 km/h 18.3 km/h 35.7% 0.0 mm
03:54 12.9 °C -1.8 °C 1015.8 hPa ONO 22.9 km/h 16.4 km/h 36% 0.0 mm
03:59 12.8 °C -1.9 °C 1015.8 hPa ONO 20.2 km/h 16.4 km/h 36% 0.0 mm
04:04 12.8 °C -1.9 °C 1015.8 hPa ONO 28.3 km/h 15.6 km/h 36% 0.0 mm
04:09 12.8 °C -2 °C 1015.9 hPa ONO 24.6 km/h 15.6 km/h 36% 0.0 mm
04:14 12.7 °C -2 °C 1015.9 hPa ONO 21.5 km/h 14.8 km/h 36% 0.0 mm
04:19 12.6 °C -2.1 °C 1015.9 hPa ONO 20.5 km/h 14.8 km/h 36% 0.0 mm
04:24 12.6 °C -2.1 °C 1016.1 hPa ONO 24.5 km/h 14.8 km/h 36% 0.0 mm
04:29 12.6 °C -2.1 °C 1016.1 hPa ONO 16.2 km/h 14.8 km/h 36% 0.0 mm
04:34 12.4 °C -2 °C 1016.1 hPa ONO 19.8 km/h 13 km/h 36.6% 0.0 mm
04:39 12.3 °C -2 °C 1016.1 hPa NO 30.2 km/h 13 km/h 37% 0.0 mm
04:44 12.3 °C -2 °C 1015.9 hPa ONO 30.8 km/h 12.2 km/h 37% 0.0 mm
04:49 12.3 °C -2 °C 1015.9 hPa ONO 26.6 km/h 18.3 km/h 37% 0.0 mm
04:54 12.2 °C -2.1 °C 1015.9 hPa ONO 27.3 km/h 18.3 km/h 37% 0.0 mm
04:59 12.2 °C -2.1 °C 1015.9 hPa ONO 29.4 km/h 18.3 km/h 37% 0.0 mm
05:04 12.1 °C -2.2 °C 1015.9 hPa ONO 27.7 km/h 17.2 km/h 37% 0.0 mm
05:09 12.1 °C -2.2 °C 1015.9 hPa ONO 30.1 km/h 18.3 km/h 37% 0.0 mm
05:14 12.1 °C -2.3 °C 1015.9 hPa ONO 31.5 km/h 18.3 km/h 36.6% 0.0 mm
05:19 12.2 °C -2.6 °C 1015.9 hPa ONO 29.3 km/h 19.8 km/h 35.6% 0.0 mm
05:24 12.1 °C -2.7 °C 1015.9 hPa ONO 27 km/h 19.8 km/h 35.5% 0.0 mm
05:29 12.1 °C -3 °C 1015.9 hPa ONO 31.5 km/h 19.8 km/h 35% 0.0 mm
05:34 12 °C -3 °C 1015.9 hPa ONO 37.6 km/h 19 km/h 35% 0.0 mm
05:39 12.1 °C -3.3 °C 1016.0 hPa ONO 43.3 km/h 26.2 km/h 34.2% 0.0 mm
05:44 12.1 °C -3.3 °C 1016.0 hPa ONO 38.5 km/h 26.2 km/h 34% 0.0 mm
05:49 12 °C -3.4 °C 1016.0 hPa Oeste 38.7 km/h 26.2 km/h 34% 0.0 mm
05:54 12 °C -3.4 °C 1016.2 hPa ONO 33.4 km/h 23.3 km/h 34% 0.0 mm
05:59 11.9 °C -3.5 °C 1016.2 hPa ONO 27.9 km/h 23.3 km/h 34% 0.0 mm
06:04 11.8 °C -3.5 °C 1016.2 hPa ONO 23.6 km/h 22 km/h 34% 0.0 mm
06:09 11.8 °C -3.3 °C 1017.0 hPa Oeste 13.4 km/h 22 km/h 34.6% 0.0 mm
06:14 11.7 °C -3.3 °C 1017.0 hPa SSO 11.5 km/h 11.9 km/h 35% 0.0 mm
06:19 11.7 °C -3.3 °C 1017.0 hPa NNO 8.4 km/h 11.9 km/h 35% 0.0 mm
06:24 11.7 °C -3.3 °C 1017.5 hPa SSE 15.6 km/h 6.4 km/h 35% 0.0 mm
06:29 11.8 °C -3.6 °C 1017.5 hPa ONO 12.6 km/h 8.7 km/h 34% 0.0 mm
06:34 11.8 °C -3.6 °C 1017.5 hPa ESE 13.7 km/h 8.7 km/h 34% 0.0 mm
06:39 11.9 °C -3.5 °C 1018.0 hPa SE 16.7 km/h 8.7 km/h 34% 0.0 mm
06:44 11.9 °C -3.5 °C 1018.0 hPa SSO 9.2 km/h 7.6 km/h 34% 0.0 mm
06:49 11.9 °C -3.5 °C 1018.0 hPa SO 9.9 km/h 7.6 km/h 34% 0.0 mm
06:54 11.8 °C -3.7 °C 1018.1 hPa Oeste 20.2 km/h 6.9 km/h 33.8% 0.0 mm
06:59 11.7 °C -4.1 °C 1018.1 hPa ONO 28.8 km/h 12.2 km/h 33% 0.0 mm
07:04 11.7 °C -4.1 °C 1018.1 hPa ONO 28.4 km/h 12.2 km/h 33% 0.0 mm
07:09 11.7 °C -4.1 °C 1018.1 hPa ONO 35 km/h 19.8 km/h 33% 0.0 mm
07:14 11.7 °C -4.1 °C 1018.0 hPa ONO 27.6 km/h 19.8 km/h 33% 0.0 mm
07:19 11.5 °C -4.1 °C 1018.0 hPa ONO 25.4 km/h 19.8 km/h 33.4% 0.0 mm
07:24 11.4 °C -4.2 °C 1018.0 hPa Oeste 29.3 km/h 18.3 km/h 33.2% 0.0 mm
07:29 11.5 °C -4.2 °C 1018.0 hPa ONO 26.1 km/h 19 km/h 33.2% 0.0 mm
07:34 11.4 °C -3.9 °C 1018.0 hPa ONO 28 km/h 19 km/h 34% 0.0 mm
07:39 11.3 °C -4 °C 1018.6 hPa ONO 15.5 km/h 19 km/h 34% 0.0 mm
07:44 11.3 °C -4 °C 1018.6 hPa Oeste 14.1 km/h 14.8 km/h 34% 0.0 mm
07:49 11.2 °C -4.1 °C 1018.6 hPa Oeste 17.8 km/h 14.8 km/h 34% 0.0 mm
07:54 11.2 °C -4.1 °C 1018.8 hPa Oeste 15.9 km/h 9.5 km/h 34% 0.0 mm
07:59 11.2 °C -3.8 °C 1018.8 hPa Oeste 12.2 km/h 10 km/h 34.8% 0.0 mm
08:04 11.2 °C -3.7 °C 1018.8 hPa OSO 12.8 km/h 10 km/h 35% 0.0 mm
08:09 11.2 °C -3.7 °C 1018.9 hPa OSO 10.1 km/h 10 km/h 35% 0.0 mm
08:14 11.3 °C -3.6 °C 1018.9 hPa OSO 13 km/h 6.9 km/h 35% 0.0 mm
08:19 11.3 °C -3.8 °C 1018.9 hPa OSO 15.3 km/h 7.6 km/h 34.5% 0.0 mm
08:24 11.5 °C -3.9 °C 1019.2 hPa OSO 17 km/h 7.6 km/h 34% 0.0 mm
08:29 11.7 °C -3.7 °C 1019.2 hPa Oeste 20.4 km/h 10.3 km/h 34% 0.0 mm
08:34 11.7 °C -3.6 °C 1019.2 hPa Oeste 19.4 km/h 10.3 km/h 34% 0.0 mm
08:39 11.8 °C -3.7 °C 1019.3 hPa Oeste 14.9 km/h 11.9 km/h 33.6% 0.0 mm
08:44 11.9 °C -3.9 °C 1019.3 hPa Oeste 14.9 km/h 11.9 km/h 33% 0.0 mm
08:49 11.9 °C -3.9 °C 1019.3 hPa Oeste 20.6 km/h 11.9 km/h 33% 0.0 mm
08:54 12 °C -3.8 °C 1019.3 hPa Oeste 18.3 km/h 10.3 km/h 33% 0.0 mm
08:59 12.1 °C -3.7 °C 1019.0 hPa Oeste 23.3 km/h 13 km/h 33% 0.0 mm
09:04 12.2 °C -3.7 °C 1019.0 hPa Oeste 25.7 km/h 13 km/h 33% 0.0 mm
Murcia-Puente Tocinos, España
Compliments of Weather Underground - 2 mb

La estación de MeteoMurcia.com, publica sus datos en los siguientes proyectos:

Weather Underground PWS IMURCIAP2 Meteoclimatic www.awekas.at

Web Analytics

Clicky